sensor_id;sensor_type;location;lat;lon;timestamp;P1;durP1;ratioP1;P2;durP2;ratioP2
82558;SDS011;72227;42.004;21.364;2023-09-19T00:00:23;19.42;;;12.43;;
82558;SDS011;72227;42.004;21.364;2023-09-19T00:02:53;17.20;;;11.88;;
82558;SDS011;72227;42.004;21.364;2023-09-19T00:05:19;16.92;;;12.35;;
82558;SDS011;72227;42.004;21.364;2023-09-19T00:07:49;20.77;;;13.23;;
82558;SDS011;72227;42.004;21.364;2023-09-19T00:10:16;18.63;;;12.63;;
82558;SDS011;72227;42.004;21.364;2023-09-19T00:12:45;20.85;;;12.57;;
82558;SDS011;72227;42.004;21.364;2023-09-19T00:15:11;19.20;;;12.43;;
82558;SDS011;72227;42.004;21.364;2023-09-19T00:17:37;15.93;;;11.05;;
82558;SDS011;72227;42.004;21.364;2023-09-19T00:20:05;17.88;;;13.73;;
82558;SDS011;72227;42.004;21.364;2023-09-19T00:22:40;19.40;;;12.05;;
82558;SDS011;72227;42.004;21.364;2023-09-19T00:25:10;17.40;;;11.95;;
82558;SDS011;72227;42.004;21.364;2023-09-19T00:27:40;20.40;;;12.95;;
82558;SDS011;72227;42.004;21.364;2023-09-19T00:30:07;17.50;;;11.10;;
82558;SDS011;72227;42.004;21.364;2023-09-19T00:32:43;17.35;;;12.60;;
82558;SDS011;72227;42.004;21.364;2023-09-19T00:35:12;17.42;;;12.32;;
82558;SDS011;72227;42.004;21.364;2023-09-19T00:37:39;16.25;;;11.75;;
82558;SDS011;72227;42.004;21.364;2023-09-19T00:40:08;16.98;;;11.57;;
82558;SDS011;72227;42.004;21.364;2023-09-19T00:42:40;17.63;;;12.77;;
82558;SDS011;72227;42.004;21.364;2023-09-19T00:45:10;20.70;;;11.70;;
82558;SDS011;72227;42.004;21.364;2023-09-19T00:47:59;23.73;;;13.07;;
82558;SDS011;72227;42.004;21.364;2023-09-19T00:50:24;16.80;;;11.10;;
82558;SDS011;72227;42.004;21.364;2023-09-19T00:52:54;18.17;;;12.40;;
82558;SDS011;72227;42.004;21.364;2023-09-19T00:55:21;17.35;;;12.65;;
82558;SDS011;72227;42.004;21.364;2023-09-19T00:57:47;17.30;;;12.68;;
82558;SDS011;72227;42.004;21.364;2023-09-19T01:00:15;15.93;;;11.90;;
82558;SDS011;72227;42.004;21.364;2023-09-19T01:02:41;18.23;;;12.77;;
82558;SDS011;72227;42.004;21.364;2023-09-19T01:05:08;18.90;;;12.55;;
82558;SDS011;72227;42.004;21.364;2023-09-19T01:07:35;22.52;;;12.70;;
82558;SDS011;72227;42.004;21.364;2023-09-19T01:10:05;15.65;;;11.43;;
82558;SDS011;72227;42.004;21.364;2023-09-19T01:15:20;17.65;;;13.00;;
82558;SDS011;72227;42.004;21.364;2023-09-19T01:23:10;19.15;;;12.48;;
82558;SDS011;72227;42.004;21.364;2023-09-19T01:31:01;19.27;;;11.82;;
82558;SDS011;72227;42.004;21.364;2023-09-19T01:33:28;18.60;;;13.15;;
82558;SDS011;72227;42.004;21.364;2023-09-19T01:39:04;18.35;;;13.23;;
82558;SDS011;72227;42.004;21.364;2023-09-19T01:44:15;24.30;;;12.63;;
82558;SDS011;72227;42.004;21.364;2023-09-19T01:46:43;17.80;;;11.43;;
82558;SDS011;72227;42.004;21.364;2023-09-19T01:49:32;17.05;;;12.70;;
82558;SDS011;72227;42.004;21.364;2023-09-19T01:52:03;16.27;;;11.55;;
82558;SDS011;72227;42.004;21.364;2023-09-19T01:54:40;17.83;;;12.38;;
82558;SDS011;72227;42.004;21.364;2023-09-19T01:59:45;17.15;;;12.40;;
82558;SDS011;72227;42.004;21.364;2023-09-19T02:02:16;15.35;;;11.77;;
82558;SDS011;72227;42.004;21.364;2023-09-19T02:04:43;17.58;;;12.88;;
82558;SDS011;72227;42.004;21.364;2023-09-19T02:07:09;17.35;;;12.05;;
82558;SDS011;72227;42.004;21.364;2023-09-19T02:09:35;16.65;;;12.60;;
82558;SDS011;72227;42.004;21.364;2023-09-19T02:12:04;18.65;;;12.32;;
82558;SDS011;72227;42.004;21.364;2023-09-19T02:14:30;18.55;;;12.07;;
82558;SDS011;72227;42.004;21.364;2023-09-19T02:16:57;19.48;;;11.43;;
82558;SDS011;72227;42.004;21.364;2023-09-19T02:19:23;17.02;;;11.75;;
82558;SDS011;72227;42.004;21.364;2023-09-19T02:22:06;18.15;;;12.68;;
82558;SDS011;72227;42.004;21.364;2023-09-19T02:24:35;18.67;;;11.68;;
82558;SDS011;72227;42.004;21.364;2023-09-19T02:27:02;19.20;;;13.38;;
82558;SDS011;72227;42.004;21.364;2023-09-19T02:29:31;17.17;;;12.35;;
82558;SDS011;72227;42.004;21.364;2023-09-19T02:31:59;19.23;;;12.60;;
82558;SDS011;72227;42.004;21.364;2023-09-19T02:34:26;17.77;;;11.90;;
82558;SDS011;72227;42.004;21.364;2023-09-19T02:36:52;20.55;;;12.55;;
82558;SDS011;72227;42.004;21.364;2023-09-19T02:39:20;20.15;;;13.15;;
82558;SDS011;72227;42.004;21.364;2023-09-19T02:41:46;18.77;;;12.35;;
82558;SDS011;72227;42.004;21.364;2023-09-19T02:44:12;19.10;;;11.60;;
82558;SDS011;72227;42.004;21.364;2023-09-19T02:46:39;16.83;;;12.80;;
82558;SDS011;72227;42.004;21.364;2023-09-19T02:49:05;17.67;;;12.82;;
82558;SDS011;72227;42.004;21.364;2023-09-19T02:51:32;16.25;;;11.80;;
82558;SDS011;72227;42.004;21.364;2023-09-19T02:54:01;15.95;;;11.38;;
82558;SDS011;72227;42.004;21.364;2023-09-19T02:56:29;19.33;;;12.82;;
82558;SDS011;72227;42.004;21.364;2023-09-19T02:58:58;17.38;;;11.43;;
82558;SDS011;72227;42.004;21.364;2023-09-19T03:01:26;17.92;;;12.85;;
82558;SDS011;72227;42.004;21.364;2023-09-19T03:03:53;16.92;;;11.75;;
82558;SDS011;72227;42.004;21.364;2023-09-19T03:09:23;16.00;;;12.07;;
82558;SDS011;72227;42.004;21.364;2023-09-19T03:11:50;16.40;;;12.15;;
82558;SDS011;72227;42.004;21.364;2023-09-19T03:14:16;16.60;;;12.95;;
82558;SDS011;72227;42.004;21.364;2023-09-19T03:16:42;16.60;;;12.80;;
82558;SDS011;72227;42.004;21.364;2023-09-19T03:19:09;18.33;;;13.50;;
82558;SDS011;72227;42.004;21.364;2023-09-19T03:21:36;21.05;;;14.00;;
82558;SDS011;72227;42.004;21.364;2023-09-19T03:24:04;18.23;;;12.43;;
82558;SDS011;72227;42.004;21.364;2023-09-19T03:26:30;20.67;;;12.20;;
82558;SDS011;72227;42.004;21.364;2023-09-19T03:28:56;18.02;;;12.68;;
82558;SDS011;72227;42.004;21.364;2023-09-19T03:31:22;18.85;;;13.10;;
82558;SDS011;72227;42.004;21.364;2023-09-19T03:33:48;18.25;;;12.40;;
82558;SDS011;72227;42.004;21.364;2023-09-19T03:36:14;16.70;;;13.15;;
82558;SDS011;72227;42.004;21.364;2023-09-19T03:38:41;16.20;;;11.85;;
82558;SDS011;72227;42.004;21.364;2023-09-19T03:41:08;17.90;;;12.82;;
82558;SDS011;72227;42.004;21.364;2023-09-19T03:43:34;17.42;;;12.30;;
82558;SDS011;72227;42.004;21.364;2023-09-19T03:46:03;18.83;;;11.93;;
82558;SDS011;72227;42.004;21.364;2023-09-19T03:48:30;16.02;;;11.90;;
82558;SDS011;72227;42.004;21.364;2023-09-19T03:50:56;17.70;;;12.65;;
82558;SDS011;72227;42.004;21.364;2023-09-19T03:53:22;22.63;;;13.43;;
82558;SDS011;72227;42.004;21.364;2023-09-19T03:55:48;19.25;;;12.23;;
82558;SDS011;72227;42.004;21.364;2023-09-19T03:58:15;18.05;;;13.13;;
82558;SDS011;72227;42.004;21.364;2023-09-19T04:00:41;21.25;;;13.25;;
82558;SDS011;72227;42.004;21.364;2023-09-19T04:03:07;18.45;;;12.35;;
82558;SDS011;72227;42.004;21.364;2023-09-19T04:05:33;18.30;;;12.38;;
82558;SDS011;72227;42.004;21.364;2023-09-19T04:08:00;18.95;;;13.18;;
82558;SDS011;72227;42.004;21.364;2023-09-19T04:10:26;20.80;;;13.02;;
82558;SDS011;72227;42.004;21.364;2023-09-19T04:12:52;19.77;;;14.27;;
82558;SDS011;72227;42.004;21.364;2023-09-19T04:15:18;21.35;;;13.63;;
82558;SDS011;72227;42.004;21.364;2023-09-19T04:17:46;16.90;;;12.88;;
82558;SDS011;72227;42.004;21.364;2023-09-19T04:20:13;19.17;;;12.68;;
82558;SDS011;72227;42.004;21.364;2023-09-19T04:22:39;18.98;;;12.88;;
82558;SDS011;72227;42.004;21.364;2023-09-19T04:25:05;16.92;;;12.10;;
82558;SDS011;72227;42.004;21.364;2023-09-19T04:27:34;17.33;;;12.25;;
82558;SDS011;72227;42.004;21.364;2023-09-19T04:30:00;20.35;;;12.80;;
82558;SDS011;72227;42.004;21.364;2023-09-19T04:32:29;19.45;;;11.68;;
82558;SDS011;72227;42.004;21.364;2023-09-19T04:34:57;17.58;;;12.02;;
82558;SDS011;72227;42.004;21.364;2023-09-19T04:37:25;17.08;;;11.70;;
82558;SDS011;72227;42.004;21.364;2023-09-19T04:39:51;25.85;;;12.10;;
82558;SDS011;72227;42.004;21.364;2023-09-19T04:42:17;17.48;;;12.00;;
82558;SDS011;72227;42.004;21.364;2023-09-19T04:44:44;18.38;;;12.25;;
82558;SDS011;72227;42.004;21.364;2023-09-19T04:47:10;17.70;;;12.68;;
82558;SDS011;72227;42.004;21.364;2023-09-19T04:49:37;18.25;;;12.75;;
82558;SDS011;72227;42.004;21.364;2023-09-19T04:52:05;17.50;;;12.73;;
82558;SDS011;72227;42.004;21.364;2023-09-19T04:54:31;21.42;;;14.68;;
82558;SDS011;72227;42.004;21.364;2023-09-19T04:56:59;24.27;;;15.75;;
82558;SDS011;72227;42.004;21.364;2023-09-19T04:59:28;26.42;;;15.98;;
82558;SDS011;72227;42.004;21.364;2023-09-19T05:01:54;25.35;;;16.85;;
82558;SDS011;72227;42.004;21.364;2023-09-19T05:04:21;28.17;;;17.75;;
82558;SDS011;72227;42.004;21.364;2023-09-19T05:06:47;23.70;;;14.27;;
82558;SDS011;72227;42.004;21.364;2023-09-19T05:09:13;25.67;;;15.52;;
82558;SDS011;72227;42.004;21.364;2023-09-19T05:11:40;23.13;;;15.30;;
82558;SDS011;72227;42.004;21.364;2023-09-19T05:14:06;20.05;;;13.93;;
82558;SDS011;72227;42.004;21.364;2023-09-19T05:16:32;20.95;;;12.70;;
82558;SDS011;72227;42.004;21.364;2023-09-19T05:18:59;25.58;;;15.45;;
82558;SDS011;72227;42.004;21.364;2023-09-19T05:21:28;27.92;;;15.15;;
82558;SDS011;72227;42.004;21.364;2023-09-19T05:23:55;25.95;;;17.23;;
82558;SDS011;72227;42.004;21.364;2023-09-19T05:26:22;20.92;;;14.77;;
82558;SDS011;72227;42.004;21.364;2023-09-19T05:28:48;22.10;;;14.57;;
82558;SDS011;72227;42.004;21.364;2023-09-19T05:31:15;24.45;;;14.60;;
82558;SDS011;72227;42.004;21.364;2023-09-19T05:33:41;24.98;;;15.57;;
82558;SDS011;72227;42.004;21.364;2023-09-19T05:36:11;22.58;;;15.55;;
82558;SDS011;72227;42.004;21.364;2023-09-19T05:38:37;25.05;;;14.32;;
82558;SDS011;72227;42.004;21.364;2023-09-19T05:41:10;23.70;;;13.98;;
82558;SDS011;72227;42.004;21.364;2023-09-19T05:43:39;21.35;;;13.85;;
82558;SDS011;72227;42.004;21.364;2023-09-19T05:46:06;18.02;;;13.60;;
82558;SDS011;72227;42.004;21.364;2023-09-19T05:48:33;19.08;;;14.18;;
82558;SDS011;72227;42.004;21.364;2023-09-19T05:50:59;21.60;;;13.95;;
82558;SDS011;72227;42.004;21.364;2023-09-19T05:53:26;25.63;;;14.57;;
82558;SDS011;72227;42.004;21.364;2023-09-19T05:55:52;21.88;;;13.70;;
82558;SDS011;72227;42.004;21.364;2023-09-19T05:58:20;21.73;;;13.75;;
82558;SDS011;72227;42.004;21.364;2023-09-19T06:00:46;18.95;;;14.27;;
82558;SDS011;72227;42.004;21.364;2023-09-19T06:03:14;19.60;;;12.68;;
82558;SDS011;72227;42.004;21.364;2023-09-19T06:05:42;19.38;;;12.98;;
82558;SDS011;72227;42.004;21.364;2023-09-19T06:08:08;25.40;;;13.50;;
82558;SDS011;72227;42.004;21.364;2023-09-19T06:10:35;18.42;;;13.38;;
82558;SDS011;72227;42.004;21.364;2023-09-19T06:13:04;23.85;;;14.88;;
82558;SDS011;72227;42.004;21.364;2023-09-19T06:15:31;21.52;;;13.77;;
82558;SDS011;72227;42.004;21.364;2023-09-19T06:17:58;22.20;;;14.30;;
82558;SDS011;72227;42.004;21.364;2023-09-19T06:20:28;22.25;;;14.23;;
82558;SDS011;72227;42.004;21.364;2023-09-19T06:22:54;25.17;;;13.85;;
82558;SDS011;72227;42.004;21.364;2023-09-19T06:25:22;21.80;;;14.05;;
82558;SDS011;72227;42.004;21.364;2023-09-19T06:27:50;18.48;;;13.93;;
82558;SDS011;72227;42.004;21.364;2023-09-19T06:35:51;19.92;;;12.63;;
82558;SDS011;72227;42.004;21.364;2023-09-19T06:38:25;21.45;;;12.55;;
82558;SDS011;72227;42.004;21.364;2023-09-19T06:40:58;17.35;;;12.48;;
82558;SDS011;72227;42.004;21.364;2023-09-19T06:43:24;16.92;;;12.13;;
82558;SDS011;72227;42.004;21.364;2023-09-19T06:45:51;17.55;;;12.48;;
82558;SDS011;72227;42.004;21.364;2023-09-19T06:48:19;17.40;;;12.80;;
82558;SDS011;72227;42.004;21.364;2023-09-19T06:50:46;17.27;;;11.55;;
82558;SDS011;72227;42.004;21.364;2023-09-19T06:53:13;15.32;;;12.02;;
82558;SDS011;72227;42.004;21.364;2023-09-19T06:55:39;17.23;;;11.90;;
82558;SDS011;72227;42.004;21.364;2023-09-19T06:58:05;17.95;;;12.15;;
82558;SDS011;72227;42.004;21.364;2023-09-19T07:00:33;20.02;;;13.63;;
82558;SDS011;72227;42.004;21.364;2023-09-19T07:03:01;20.13;;;12.32;;
82558;SDS011;72227;42.004;21.364;2023-09-19T07:05:32;19.33;;;12.63;;
82558;SDS011;72227;42.004;21.364;2023-09-19T07:07:59;22.63;;;14.10;;
82558;SDS011;72227;42.004;21.364;2023-09-19T07:10:26;20.90;;;14.27;;
82558;SDS011;72227;42.004;21.364;2023-09-19T07:13:02;19.65;;;14.15;;
82558;SDS011;72227;42.004;21.364;2023-09-19T07:15:29;21.73;;;13.32;;
82558;SDS011;72227;42.004;21.364;2023-09-19T07:17:56;20.73;;;13.48;;
82558;SDS011;72227;42.004;21.364;2023-09-19T07:20:23;19.73;;;11.23;;
82558;SDS011;72227;42.004;21.364;2023-09-19T07:22:56;21.00;;;12.68;;
82558;SDS011;72227;42.004;21.364;2023-09-19T07:25:25;15.15;;;10.75;;
82558;SDS011;72227;42.004;21.364;2023-09-19T07:27:51;18.25;;;11.75;;
82558;SDS011;72227;42.004;21.364;2023-09-19T07:30:17;19.17;;;11.80;;
82558;SDS011;72227;42.004;21.364;2023-09-19T07:32:43;15.23;;;10.80;;
82558;SDS011;72227;42.004;21.364;2023-09-19T07:35:09;20.02;;;11.55;;
82558;SDS011;72227;42.004;21.364;2023-09-19T07:37:37;20.05;;;12.40;;
82558;SDS011;72227;42.004;21.364;2023-09-19T07:40:03;28.98;;;12.57;;
82558;SDS011;72227;42.004;21.364;2023-09-19T07:42:34;17.95;;;11.57;;
82558;SDS011;72227;42.004;21.364;2023-09-19T07:45:02;16.42;;;10.77;;
82558;SDS011;72227;42.004;21.364;2023-09-19T07:47:28;20.40;;;12.15;;
82558;SDS011;72227;42.004;21.364;2023-09-19T07:49:55;19.83;;;10.85;;
82558;SDS011;72227;42.004;21.364;2023-09-19T07:52:21;15.50;;;10.20;;
82558;SDS011;72227;42.004;21.364;2023-09-19T07:54:48;18.23;;;10.60;;
82558;SDS011;72227;42.004;21.364;2023-09-19T07:57:14;19.52;;;10.50;;
82558;SDS011;72227;42.004;21.364;2023-09-19T07:59:42;18.55;;;11.52;;
82558;SDS011;72227;42.004;21.364;2023-09-19T08:02:10;18.35;;;12.60;;
82558;SDS011;72227;42.004;21.364;2023-09-19T08:04:42;18.27;;;11.68;;
82558;SDS011;72227;42.004;21.364;2023-09-19T08:07:08;21.70;;;14.15;;
82558;SDS011;72227;42.004;21.364;2023-09-19T08:09:36;25.02;;;14.70;;
82558;SDS011;72227;42.004;21.364;2023-09-19T08:12:04;20.38;;;12.80;;
82558;SDS011;72227;42.004;21.364;2023-09-19T08:14:30;20.52;;;12.75;;
82558;SDS011;72227;42.004;21.364;2023-09-19T08:16:57;19.65;;;13.48;;
82558;SDS011;72227;42.004;21.364;2023-09-19T08:19:28;20.65;;;11.73;;
82558;SDS011;72227;42.004;21.364;2023-09-19T08:21:57;23.30;;;13.02;;
82558;SDS011;72227;42.004;21.364;2023-09-19T08:24:24;18.25;;;13.10;;
82558;SDS011;72227;42.004;21.364;2023-09-19T08:26:54;19.40;;;12.60;;
82558;SDS011;72227;42.004;21.364;2023-09-19T08:29:21;15.57;;;12.40;;
82558;SDS011;72227;42.004;21.364;2023-09-19T08:31:52;19.20;;;13.27;;
82558;SDS011;72227;42.004;21.364;2023-09-19T08:34:18;16.92;;;11.77;;
82558;SDS011;72227;42.004;21.364;2023-09-19T08:36:48;20.88;;;12.98;;
82558;SDS011;72227;42.004;21.364;2023-09-19T08:39:14;19.48;;;12.07;;
82558;SDS011;72227;42.004;21.364;2023-09-19T08:41:40;18.63;;;11.30;;
82558;SDS011;72227;42.004;21.364;2023-09-19T08:44:06;20.92;;;12.15;;
82558;SDS011;72227;42.004;21.364;2023-09-19T08:46:33;20.83;;;11.00;;
82558;SDS011;72227;42.004;21.364;2023-09-19T08:51:27;20.13;;;12.27;;
82558;SDS011;72227;42.004;21.364;2023-09-19T08:56:29;17.60;;;11.18;;
82558;SDS011;72227;42.004;21.364;2023-09-19T08:58:57;16.40;;;11.15;;
82558;SDS011;72227;42.004;21.364;2023-09-19T09:01:28;19.08;;;10.50;;
82558;SDS011;72227;42.004;21.364;2023-09-19T09:03:55;16.23;;;10.10;;
82558;SDS011;72227;42.004;21.364;2023-09-19T09:06:22;18.02;;;12.13;;
82558;SDS011;72227;42.004;21.364;2023-09-19T09:08:51;15.18;;;10.93;;
82558;SDS011;72227;42.004;21.364;2023-09-19T09:11:18;13.57;;;10.70;;
82558;SDS011;72227;42.004;21.364;2023-09-19T09:13:44;13.00;;;9.38;;
82558;SDS011;72227;42.004;21.364;2023-09-19T09:16:11;14.50;;;9.25;;
82558;SDS011;72227;42.004;21.364;2023-09-19T09:18:38;15.48;;;9.88;;
82558;SDS011;72227;42.004;21.364;2023-09-19T09:21:05;14.73;;;10.32;;
82558;SDS011;72227;42.004;21.364;2023-09-19T09:23:31;15.50;;;9.60;;
82558;SDS011;72227;42.004;21.364;2023-09-19T09:25:57;16.25;;;10.27;;
82558;SDS011;72227;42.004;21.364;2023-09-19T09:28:44;12.70;;;8.98;;
82558;SDS011;72227;42.004;21.364;2023-09-19T09:31:31;17.38;;;9.88;;
82558;SDS011;72227;42.004;21.364;2023-09-19T09:33:57;13.10;;;9.88;;
82558;SDS011;72227;42.004;21.364;2023-09-19T09:36:36;15.13;;;10.15;;
82558;SDS011;72227;42.004;21.364;2023-09-19T09:39:02;13.27;;;10.20;;
82558;SDS011;72227;42.004;21.364;2023-09-19T09:41:42;14.10;;;9.73;;
82558;SDS011;72227;42.004;21.364;2023-09-19T09:44:12;17.35;;;9.73;;
82558;SDS011;72227;42.004;21.364;2023-09-19T09:46:42;15.18;;;9.88;;
82558;SDS011;72227;42.004;21.364;2023-09-19T09:49:15;16.75;;;10.35;;
82558;SDS011;72227;42.004;21.364;2023-09-19T09:52:06;17.15;;;10.35;;
82558;SDS011;72227;42.004;21.364;2023-09-19T09:54:34;15.55;;;9.60;;
82558;SDS011;72227;42.004;21.364;2023-09-19T09:57:10;13.52;;;9.70;;
82558;SDS011;72227;42.004;21.364;2023-09-19T10:02:27;13.63;;;9.65;;
82558;SDS011;72227;42.004;21.364;2023-09-19T10:05:11;15.35;;;9.73;;
82558;SDS011;72227;42.004;21.364;2023-09-19T10:07:57;15.85;;;11.05;;
82558;SDS011;72227;42.004;21.364;2023-09-19T10:10:38;17.23;;;9.98;;
82558;SDS011;72227;42.004;21.364;2023-09-19T10:13:11;15.35;;;9.38;;
82558;SDS011;72227;42.004;21.364;2023-09-19T10:15:44;16.77;;;10.65;;
82558;SDS011;72227;42.004;21.364;2023-09-19T10:18:19;15.32;;;10.32;;
82558;SDS011;72227;42.004;21.364;2023-09-19T10:20:46;14.60;;;10.38;;
82558;SDS011;72227;42.004;21.364;2023-09-19T10:23:16;17.20;;;10.32;;
82558;SDS011;72227;42.004;21.364;2023-09-19T10:25:49;18.05;;;10.10;;
82558;SDS011;72227;42.004;21.364;2023-09-19T10:28:18;18.10;;;10.13;;
82558;SDS011;72227;42.004;21.364;2023-09-19T10:30:49;15.50;;;9.93;;
82558;SDS011;72227;42.004;21.364;2023-09-19T10:33:16;14.30;;;9.50;;
82558;SDS011;72227;42.004;21.364;2023-09-19T10:35:44;16.55;;;9.57;;
82558;SDS011;72227;42.004;21.364;2023-09-19T10:38:11;16.10;;;10.43;;
82558;SDS011;72227;42.004;21.364;2023-09-19T10:40:37;17.98;;;10.45;;
82558;SDS011;72227;42.004;21.364;2023-09-19T10:43:25;15.27;;;11.20;;
82558;SDS011;72227;42.004;21.364;2023-09-19T10:45:51;14.27;;;9.90;;
82558;SDS011;72227;42.004;21.364;2023-09-19T10:48:20;15.88;;;9.05;;
82558;SDS011;72227;42.004;21.364;2023-09-19T10:53:38;16.73;;;11.10;;
82558;SDS011;72227;42.004;21.364;2023-09-19T10:56:08;14.73;;;10.20;;
82558;SDS011;72227;42.004;21.364;2023-09-19T10:58:42;13.25;;;9.27;;
82558;SDS011;72227;42.004;21.364;2023-09-19T11:01:16;13.77;;;10.00;;
82558;SDS011;72227;42.004;21.364;2023-09-19T11:03:50;15.77;;;10.45;;
82558;SDS011;72227;42.004;21.364;2023-09-19T11:06:36;17.15;;;10.32;;
82558;SDS011;72227;42.004;21.364;2023-09-19T11:09:02;13.32;;;10.15;;
82558;SDS011;72227;42.004;21.364;2023-09-19T11:11:41;17.10;;;10.68;;
82558;SDS011;72227;42.004;21.364;2023-09-19T11:17:49;14.13;;;9.90;;
82558;SDS011;72227;42.004;21.364;2023-09-19T11:30:51;18.48;;;10.68;;
82558;SDS011;72227;42.004;21.364;2023-09-19T11:35:58;14.82;;;8.95;;
82558;SDS011;72227;42.004;21.364;2023-09-19T11:41:36;12.98;;;9.18;;
82558;SDS011;72227;42.004;21.364;2023-09-19T11:46:29;20.27;;;12.02;;
82558;SDS011;72227;42.004;21.364;2023-09-19T11:49:04;14.93;;;9.27;;
82558;SDS011;72227;42.004;21.364;2023-09-19T11:51:39;12.15;;;8.70;;
82558;SDS011;72227;42.004;21.364;2023-09-19T11:54:10;14.35;;;9.40;;
82558;SDS011;72227;42.004;21.364;2023-09-19T11:56:53;13.23;;;8.70;;
82558;SDS011;72227;42.004;21.364;2023-09-19T11:59:29;13.15;;;8.80;;
82558;SDS011;72227;42.004;21.364;2023-09-19T12:02:00;12.95;;;9.20;;
82558;SDS011;72227;42.004;21.364;2023-09-19T12:07:10;11.82;;;9.30;;
82558;SDS011;72227;42.004;21.364;2023-09-19T12:09:40;16.58;;;8.88;;
82558;SDS011;72227;42.004;21.364;2023-09-19T12:12:28;16.50;;;9.73;;
82558;SDS011;72227;42.004;21.364;2023-09-19T12:14:55;16.17;;;9.50;;
82558;SDS011;72227;42.004;21.364;2023-09-19T12:17:38;12.23;;;8.90;;
82558;SDS011;72227;42.004;21.364;2023-09-19T12:20:06;14.23;;;9.38;;
82558;SDS011;72227;42.004;21.364;2023-09-19T12:22:42;12.98;;;8.48;;
82558;SDS011;72227;42.004;21.364;2023-09-19T12:25:09;11.18;;;9.48;;
82558;SDS011;72227;42.004;21.364;2023-09-19T12:30:09;16.25;;;9.25;;
82558;SDS011;72227;42.004;21.364;2023-09-19T12:32:39;13.93;;;9.60;;
82558;SDS011;72227;42.004;21.364;2023-09-19T12:35:09;14.18;;;10.15;;
82558;SDS011;72227;42.004;21.364;2023-09-19T12:37:45;12.95;;;9.82;;
82558;SDS011;72227;42.004;21.364;2023-09-19T12:40:17;20.15;;;9.60;;
82558;SDS011;72227;42.004;21.364;2023-09-19T12:42:47;12.30;;;9.07;;
82558;SDS011;72227;42.004;21.364;2023-09-19T12:45:15;15.40;;;9.50;;
82558;SDS011;72227;42.004;21.364;2023-09-19T12:52:58;14.45;;;8.70;;
82558;SDS011;72227;42.004;21.364;2023-09-19T12:55:30;11.73;;;8.40;;
82558;SDS011;72227;42.004;21.364;2023-09-19T12:58:09;11.15;;;8.50;;
82558;SDS011;72227;42.004;21.364;2023-09-19T13:00:44;13.52;;;8.80;;
82558;SDS011;72227;42.004;21.364;2023-09-19T13:05:50;12.25;;;8.48;;
82558;SDS011;72227;42.004;21.364;2023-09-19T13:08:17;12.43;;;7.85;;
82558;SDS011;72227;42.004;21.364;2023-09-19T13:14:21;11.40;;;8.57;;
82558;SDS011;72227;42.004;21.364;2023-09-19T13:16:26;13.18;;;8.15;;
82558;SDS011;72227;42.004;21.364;2023-09-19T13:18:53;10.23;;;7.65;;
82558;SDS011;72227;42.004;21.364;2023-09-19T13:21:54;11.70;;;7.32;;
82558;SDS011;72227;42.004;21.364;2023-09-19T13:24:22;11.32;;;7.53;;
82558;SDS011;72227;42.004;21.364;2023-09-19T13:26:56;11.30;;;7.57;;
82558;SDS011;72227;42.004;21.364;2023-09-19T13:29:22;11.88;;;7.32;;
82558;SDS011;72227;42.004;21.364;2023-09-19T13:31:49;13.80;;;7.28;;
82558;SDS011;72227;42.004;21.364;2023-09-19T13:34:16;11.13;;;6.72;;
82558;SDS011;72227;42.004;21.364;2023-09-19T13:36:42;11.27;;;6.85;;
82558;SDS011;72227;42.004;21.364;2023-09-19T13:39:09;12.27;;;6.95;;
82558;SDS011;72227;42.004;21.364;2023-09-19T13:41:36;15.32;;;7.75;;
82558;SDS011;72227;42.004;21.364;2023-09-19T13:44:02;11.55;;;7.57;;
82558;SDS011;72227;42.004;21.364;2023-09-19T13:46:29;12.73;;;8.00;;
82558;SDS011;72227;42.004;21.364;2023-09-19T13:48:58;13.45;;;7.35;;
82558;SDS011;72227;42.004;21.364;2023-09-19T13:51:27;9.98;;;7.25;;
82558;SDS011;72227;42.004;21.364;2023-09-19T13:53:55;11.95;;;7.45;;
82558;SDS011;72227;42.004;21.364;2023-09-19T13:56:26;10.77;;;7.68;;
82558;SDS011;72227;42.004;21.364;2023-09-19T13:58:53;13.98;;;8.05;;
82558;SDS011;72227;42.004;21.364;2023-09-19T14:01:19;15.88;;;8.10;;
82558;SDS011;72227;42.004;21.364;2023-09-19T14:03:46;10.82;;;7.47;;
82558;SDS011;72227;42.004;21.364;2023-09-19T14:06:14;12.82;;;7.90;;
82558;SDS011;72227;42.004;21.364;2023-09-19T14:08:41;14.10;;;7.85;;
82558;SDS011;72227;42.004;21.364;2023-09-19T14:11:07;13.52;;;8.27;;
82558;SDS011;72227;42.004;21.364;2023-09-19T14:13:33;15.55;;;8.25;;
82558;SDS011;72227;42.004;21.364;2023-09-19T14:16:05;16.25;;;9.75;;
82558;SDS011;72227;42.004;21.364;2023-09-19T14:18:33;13.48;;;8.07;;
82558;SDS011;72227;42.004;21.364;2023-09-19T14:21:05;11.88;;;7.78;;
82558;SDS011;72227;42.004;21.364;2023-09-19T14:23:35;14.45;;;8.10;;
82558;SDS011;72227;42.004;21.364;2023-09-19T14:26:07;12.82;;;8.52;;
82558;SDS011;72227;42.004;21.364;2023-09-19T14:28:34;12.65;;;7.75;;
82558;SDS011;72227;42.004;21.364;2023-09-19T14:31:04;12.32;;;7.32;;
82558;SDS011;72227;42.004;21.364;2023-09-19T14:33:31;15.07;;;9.43;;
82558;SDS011;72227;42.004;21.364;2023-09-19T14:35:57;12.48;;;7.53;;
82558;SDS011;72227;42.004;21.364;2023-09-19T14:38:23;11.65;;;7.53;;
82558;SDS011;72227;42.004;21.364;2023-09-19T14:40:58;15.18;;;8.95;;
82558;SDS011;72227;42.004;21.364;2023-09-19T14:43:24;11.82;;;7.03;;
82558;SDS011;72227;42.004;21.364;2023-09-19T14:45:50;12.07;;;7.47;;
82558;SDS011;72227;42.004;21.364;2023-09-19T14:48:16;11.85;;;7.30;;
82558;SDS011;72227;42.004;21.364;2023-09-19T14:50:42;12.57;;;7.82;;
82558;SDS011;72227;42.004;21.364;2023-09-19T14:53:09;11.77;;;8.02;;
82558;SDS011;72227;42.004;21.364;2023-09-19T14:55:37;16.55;;;8.30;;
82558;SDS011;72227;42.004;21.364;2023-09-19T14:58:06;12.07;;;7.80;;
82558;SDS011;72227;42.004;21.364;2023-09-19T15:00:33;14.95;;;7.97;;
82558;SDS011;72227;42.004;21.364;2023-09-19T15:03:00;12.25;;;8.00;;
82558;SDS011;72227;42.004;21.364;2023-09-19T15:05:27;13.02;;;7.57;;
82558;SDS011;72227;42.004;21.364;2023-09-19T15:07:55;13.77;;;7.45;;
82558;SDS011;72227;42.004;21.364;2023-09-19T15:10:22;12.93;;;7.90;;
82558;SDS011;72227;42.004;21.364;2023-09-19T15:12:48;16.90;;;8.07;;
82558;SDS011;72227;42.004;21.364;2023-09-19T15:15:14;19.20;;;8.02;;
82558;SDS011;72227;42.004;21.364;2023-09-19T15:17:40;11.95;;;8.18;;
82558;SDS011;72227;42.004;21.364;2023-09-19T15:20:07;15.38;;;8.57;;
82558;SDS011;72227;42.004;21.364;2023-09-19T15:22:33;19.75;;;8.75;;
82558;SDS011;72227;42.004;21.364;2023-09-19T15:25:02;14.90;;;9.10;;
82558;SDS011;72227;42.004;21.364;2023-09-19T15:27:29;14.30;;;8.90;;
82558;SDS011;72227;42.004;21.364;2023-09-19T15:30:00;12.98;;;8.45;;
82558;SDS011;72227;42.004;21.364;2023-09-19T15:32:27;25.30;;;17.63;;
82558;SDS011;72227;42.004;21.364;2023-09-19T15:34:54;17.00;;;11.13;;
82558;SDS011;72227;42.004;21.364;2023-09-19T15:37:20;17.05;;;8.85;;
82558;SDS011;72227;42.004;21.364;2023-09-19T15:39:47;17.15;;;8.48;;
82558;SDS011;72227;42.004;21.364;2023-09-19T15:42:13;14.73;;;7.97;;